sensor_id;sensor_type;location;lat;lon;timestamp;pressure;altitude;pressure_sealevel;temperature;humidity
57900;BME280;60605;53.716;19.940;2023-05-16T00:03:01;99206.48;;;12.76;100.00
57900;BME280;60605;53.716;19.940;2023-05-16T00:08:05;99206.67;;;12.83;100.00
57900;BME280;60605;53.716;19.940;2023-05-16T00:13:08;99201.71;;;12.88;100.00
57900;BME280;60605;53.716;19.940;2023-05-16T00:18:12;99194.80;;;12.92;100.00
57900;BME280;60605;53.716;19.940;2023-05-16T00:23:18;99198.35;;;12.95;100.00
57900;BME280;60605;53.716;19.940;2023-05-16T00:28:22;99191.89;;;12.96;100.00
57900;BME280;60605;53.716;19.940;2023-05-16T00:33:26;99187.52;;;12.97;100.00
57900;BME280;60605;53.716;19.940;2023-05-16T00:38:29;99187.40;;;12.96;100.00
57900;BME280;60605;53.716;19.940;2023-05-16T00:43:32;99184.27;;;12.94;100.00
57900;BME280;60605;53.716;19.940;2023-05-16T00:48:35;99183.30;;;12.92;100.00
57900;BME280;60605;53.716;19.940;2023-05-16T00:53:38;99189.44;;;12.89;100.00
57900;BME280;60605;53.716;19.940;2023-05-16T00:58:41;99187.30;;;12.85;100.00
57900;BME280;60605;53.716;19.940;2023-05-16T01:03:44;99184.84;;;12.79;100.00
57900;BME280;60605;53.716;19.940;2023-05-16T01:08:48;99194.59;;;12.73;100.00
57900;BME280;60605;53.716;19.940;2023-05-16T01:13:54;99198.23;;;12.68;100.00
57900;BME280;60605;53.716;19.940;2023-05-16T01:24:19;99201.95;;;12.61;100.00
57900;BME280;60605;53.716;19.940;2023-05-16T01:29:24;99206.64;;;12.58;100.00
57900;BME280;60605;53.716;19.940;2023-05-16T01:34:27;99205.63;;;12.56;100.00
57900;BME280;60605;53.716;19.940;2023-05-16T01:39:41;99211.45;;;12.53;100.00
57900;BME280;60605;53.716;19.940;2023-05-16T01:44:54;99214.52;;;12.49;100.00
57900;BME280;60605;53.716;19.940;2023-05-16T01:50:15;99215.09;;;12.45;100.00
57900;BME280;60605;53.716;19.940;2023-05-16T01:55:23;99219.77;;;12.42;100.00
57900;BME280;60605;53.716;19.940;2023-05-16T02:00:30;99219.95;;;12.39;100.00
57900;BME280;60605;53.716;19.940;2023-05-16T02:05:34;99218.94;;;12.37;100.00
57900;BME280;60605;53.716;19.940;2023-05-16T02:10:37;99218.30;;;12.36;100.00
57900;BME280;60605;53.716;19.940;2023-05-16T02:15:41;99226.81;;;12.36;100.00
57900;BME280;60605;53.716;19.940;2023-05-16T02:20:45;99224.54;;;12.35;100.00
57900;BME280;60605;53.716;19.940;2023-05-16T02:25:48;99228.14;;;12.35;100.00
57900;BME280;60605;53.716;19.940;2023-05-16T02:30:57;99226.18;;;12.35;100.00
57900;BME280;60605;53.716;19.940;2023-05-16T02:36:00;99229.15;;;12.34;100.00
57900;BME280;60605;53.716;19.940;2023-05-16T02:41:04;99233.43;;;12.33;100.00
57900;BME280;60605;53.716;19.940;2023-05-16T02:46:23;99235.41;;;12.32;100.00
57900;BME280;60605;53.716;19.940;2023-05-16T02:51:27;99234.33;;;12.32;100.00
57900;BME280;60605;53.716;19.940;2023-05-16T02:56:30;99231.58;;;12.30;100.00
57900;BME280;60605;53.716;19.940;2023-05-16T03:01:33;99231.25;;;12.30;100.00
57900;BME280;60605;53.716;19.940;2023-05-16T03:06:36;99231.62;;;12.30;100.00
57900;BME280;60605;53.716;19.940;2023-05-16T03:11:39;99233.40;;;12.30;100.00
57900;BME280;60605;53.716;19.940;2023-05-16T03:16:42;99236.69;;;12.31;100.00
57900;BME280;60605;53.716;19.940;2023-05-16T03:21:46;99237.91;;;12.33;100.00
57900;BME280;60605;53.716;19.940;2023-05-16T03:26:49;99238.30;;;12.35;100.00
57900;BME280;60605;53.716;19.940;2023-05-16T03:31:53;99240.23;;;12.39;100.00
57900;BME280;60605;53.716;19.940;2023-05-16T03:36:56;99249.01;;;12.43;100.00
57900;BME280;60605;53.716;19.940;2023-05-16T03:41:59;99251.27;;;12.49;100.00
57900;BME280;60605;53.716;19.940;2023-05-16T03:47:03;99251.45;;;12.54;100.00
57900;BME280;60605;53.716;19.940;2023-05-16T03:52:06;99251.17;;;12.56;100.00
57900;BME280;60605;53.716;19.940;2023-05-16T03:57:09;99253.70;;;12.57;100.00
57900;BME280;60605;53.716;19.940;2023-05-16T04:02:12;99253.56;;;12.58;100.00
57900;BME280;60605;53.716;19.940;2023-05-16T04:07:16;99260.24;;;12.58;100.00
57900;BME280;60605;53.716;19.940;2023-05-16T04:12:19;99264.75;;;12.54;100.00
57900;BME280;60605;53.716;19.940;2023-05-16T04:17:22;99268.43;;;12.47;100.00
57900;BME280;60605;53.716;19.940;2023-05-16T04:22:25;99276.20;;;12.40;100.00
57900;BME280;60605;53.716;19.940;2023-05-16T04:27:29;99281.07;;;12.36;100.00
57900;BME280;60605;53.716;19.940;2023-05-16T04:32:33;99282.30;;;12.32;100.00
57900;BME280;60605;53.716;19.940;2023-05-16T04:37:38;99283.38;;;12.26;100.00
57900;BME280;60605;53.716;19.940;2023-05-16T04:42:41;99288.71;;;12.23;100.00
57900;BME280;60605;53.716;19.940;2023-05-16T04:47:45;99295.44;;;12.22;100.00
57900;BME280;60605;53.716;19.940;2023-05-16T04:52:48;99296.31;;;12.23;100.00
57900;BME280;60605;53.716;19.940;2023-05-16T04:57:51;99300.84;;;12.24;100.00
57900;BME280;60605;53.716;19.940;2023-05-16T05:02:54;99307.23;;;12.24;100.00
57900;BME280;60605;53.716;19.940;2023-05-16T05:07:58;99312.71;;;12.23;100.00
57900;BME280;60605;53.716;19.940;2023-05-16T05:13:01;99312.41;;;12.24;100.00
57900;BME280;60605;53.716;19.940;2023-05-16T05:18:04;99316.64;;;12.25;100.00
57900;BME280;60605;53.716;19.940;2023-05-16T05:23:08;99325.02;;;12.25;100.00
57900;BME280;60605;53.716;19.940;2023-05-16T05:28:11;99334.34;;;12.23;100.00
57900;BME280;60605;53.716;19.940;2023-05-16T05:33:16;99346.25;;;12.21;100.00
57900;BME280;60605;53.716;19.940;2023-05-16T05:38:20;99360.74;;;12.18;100.00
57900;BME280;60605;53.716;19.940;2023-05-16T05:43:23;99372.66;;;12.19;100.00
57900;BME280;60605;53.716;19.940;2023-05-16T05:48:26;99378.86;;;12.19;100.00
57900;BME280;60605;53.716;19.940;2023-05-16T05:53:31;99385.07;;;12.23;100.00
57900;BME280;60605;53.716;19.940;2023-05-16T05:58:35;99387.89;;;12.35;100.00
57900;BME280;60605;53.716;19.940;2023-05-16T06:03:38;99397.86;;;12.44;100.00
57900;BME280;60605;53.716;19.940;2023-05-16T06:08:41;99407.53;;;12.47;100.00
57900;BME280;60605;53.716;19.940;2023-05-16T06:13:44;99412.46;;;12.48;100.00
57900;BME280;60605;53.716;19.940;2023-05-16T06:18:47;99418.67;;;12.76;100.00
57900;BME280;60605;53.716;19.940;2023-05-16T06:23:51;99422.11;;;12.97;100.00
57900;BME280;60605;53.716;19.940;2023-05-16T06:28:54;99431.48;;;13.09;100.00
57900;BME280;60605;53.716;19.940;2023-05-16T06:33:57;99441.77;;;13.04;100.00
57900;BME280;60605;53.716;19.940;2023-05-16T06:39:00;99447.09;;;12.94;100.00
57900;BME280;60605;53.716;19.940;2023-05-16T06:44:03;99449.73;;;12.87;100.00
57900;BME280;60605;53.716;19.940;2023-05-16T06:49:06;99461.95;;;12.83;100.00
57900;BME280;60605;53.716;19.940;2023-05-16T06:54:10;99471.98;;;12.79;100.00
57900;BME280;60605;53.716;19.940;2023-05-16T06:59:13;99476.99;;;12.80;100.00
57900;BME280;60605;53.716;19.940;2023-05-16T07:21:53;99518.52;;;13.61;100.00
57900;BME280;60605;53.716;19.940;2023-05-16T07:26:57;99531.86;;;13.82;100.00
57900;BME280;60605;53.716;19.940;2023-05-16T07:32:00;99536.61;;;13.92;100.00
57900;BME280;60605;53.716;19.940;2023-05-16T07:37:04;99543.14;;;14.19;100.00
57900;BME280;60605;53.716;19.940;2023-05-16T07:42:09;99546.11;;;14.42;100.00
57900;BME280;60605;53.716;19.940;2023-05-16T07:47:13;99555.86;;;14.53;100.00
57900;BME280;60605;53.716;19.940;2023-05-16T07:52:17;99562.67;;;14.59;100.00
57900;BME280;60605;53.716;19.940;2023-05-16T07:57:20;99571.66;;;14.56;100.00
57900;BME280;60605;53.716;19.940;2023-05-16T08:02:26;99587.28;;;14.55;100.00
57900;BME280;60605;53.716;19.940;2023-05-16T08:07:33;99597.67;;;14.45;100.00
57900;BME280;60605;53.716;19.940;2023-05-16T08:12:36;99607.41;;;14.42;100.00
57900;BME280;60605;53.716;19.940;2023-05-16T08:17:40;99617.70;;;14.39;100.00
57900;BME280;60605;53.716;19.940;2023-05-16T08:22:43;99627.95;;;14.36;100.00
57900;BME280;60605;53.716;19.940;2023-05-16T08:27:48;99641.68;;;14.28;100.00
57900;BME280;60605;53.716;19.940;2023-05-16T08:32:52;99650.55;;;14.32;100.00
57900;BME280;60605;53.716;19.940;2023-05-16T08:37:55;99658.92;;;14.52;100.00
57900;BME280;60605;53.716;19.940;2023-05-16T08:42:59;99666.96;;;14.96;100.00
57900;BME280;60605;53.716;19.940;2023-05-16T08:48:04;99682.88;;;15.23;100.00
57900;BME280;60605;53.716;19.940;2023-05-16T08:53:14;99687.42;;;15.20;100.00
57900;BME280;60605;53.716;19.940;2023-05-16T08:58:19;99690.71;;;15.12;100.00
57900;BME280;60605;53.716;19.940;2023-05-16T09:03:23;99697.23;;;15.01;100.00
57900;BME280;60605;53.716;19.940;2023-05-16T09:08:27;99707.61;;;14.88;100.00
57900;BME280;60605;53.716;19.940;2023-05-16T09:13:30;99714.38;;;14.84;100.00
57900;BME280;60605;53.716;19.940;2023-05-16T09:18:35;99713.38;;;14.97;100.00
57900;BME280;60605;53.716;19.940;2023-05-16T09:23:41;99722.10;;;15.35;100.00
57900;BME280;60605;53.716;19.940;2023-05-16T09:28:46;99740.94;;;15.84;100.00
57900;BME280;60605;53.716;19.940;2023-05-16T09:33:50;99751.48;;;16.35;100.00
57900;BME280;60605;53.716;19.940;2023-05-16T09:38:53;99758.25;;;16.71;100.00
57900;BME280;60605;53.716;19.940;2023-05-16T09:43:56;99763.50;;;17.73;100.00
57900;BME280;60605;53.716;19.940;2023-05-16T09:48:59;99771.99;;;18.63;100.00
57900;BME280;60605;53.716;19.940;2023-05-16T09:54:06;99783.84;;;18.84;100.00
57900;BME280;60605;53.716;19.940;2023-05-16T09:59:10;99795.79;;;18.76;100.00
57900;BME280;60605;53.716;19.940;2023-05-16T10:04:14;99806.02;;;18.57;100.00
57900;BME280;60605;53.716;19.940;2023-05-16T10:09:19;99807.80;;;18.70;100.00
57900;BME280;60605;53.716;19.940;2023-05-16T10:14:24;99812.88;;;19.92;100.00
57900;BME280;60605;53.716;19.940;2023-05-16T10:19:29;99814.69;;;21.27;100.00
57900;BME280;60605;53.716;19.940;2023-05-16T10:24:47;99822.56;;;22.15;98.05
57900;BME280;60605;53.716;19.940;2023-05-16T10:29:54;99834.73;;;21.64;93.04
57900;BME280;60605;53.716;19.940;2023-05-16T10:34:57;99835.82;;;20.81;94.27
57900;BME280;60605;53.716;19.940;2023-05-16T10:40:05;99842.85;;;20.18;97.01
57900;BME280;60605;53.716;19.940;2023-05-16T10:45:18;99848.64;;;19.69;98.73
57900;BME280;60605;53.716;19.940;2023-05-16T10:50:41;99846.04;;;19.64;99.90
57900;BME280;60605;53.716;19.940;2023-05-16T11:01:24;99867.27;;;20.02;94.42
57900;BME280;60605;53.716;19.940;2023-05-16T11:06:29;99882.17;;;19.71;88.87
57900;BME280;60605;53.716;19.940;2023-05-16T11:11:51;99892.89;;;19.44;86.60
57900;BME280;60605;53.716;19.940;2023-05-16T11:17:13;99894.17;;;19.00;84.54
57900;BME280;60605;53.716;19.940;2023-05-16T11:22:32;99902.90;;;18.45;83.93
57900;BME280;60605;53.716;19.940;2023-05-16T11:27:42;99912.47;;;18.19;83.03
57900;BME280;60605;53.716;19.940;2023-05-16T11:32:46;99919.84;;;18.51;82.84
57900;BME280;60605;53.716;19.940;2023-05-16T11:37:50;99932.35;;;18.95;79.06
57900;BME280;60605;53.716;19.940;2023-05-16T11:42:54;99937.99;;;19.30;77.70
57900;BME280;60605;53.716;19.940;2023-05-16T11:48:02;99944.67;;;19.63;76.13
57900;BME280;60605;53.716;19.940;2023-05-16T11:53:06;99955.73;;;19.92;75.21
57900;BME280;60605;53.716;19.940;2023-05-16T11:58:10;99967.36;;;19.93;72.50
57900;BME280;60605;53.716;19.940;2023-05-16T12:03:14;99970.25;;;19.48;71.72
57900;BME280;60605;53.716;19.940;2023-05-16T12:08:19;99971.63;;;19.04;72.50
57900;BME280;60605;53.716;19.940;2023-05-16T12:13:24;99981.39;;;18.81;73.47
57900;BME280;60605;53.716;19.940;2023-05-16T12:18:27;99999.29;;;18.71;74.51
57900;BME280;60605;53.716;19.940;2023-05-16T12:23:34;100007.55;;;19.24;76.32
57900;BME280;60605;53.716;19.940;2023-05-16T12:28:37;100006.70;;;19.76;74.47
57900;BME280;60605;53.716;19.940;2023-05-16T12:33:43;100008.58;;;19.93;71.45
57900;BME280;60605;53.716;19.940;2023-05-16T12:38:47;100011.77;;;19.77;70.50
57900;BME280;60605;53.716;19.940;2023-05-16T12:43:50;100011.78;;;19.81;70.93
57900;BME280;60605;53.716;19.940;2023-05-16T12:49:08;100012.16;;;19.90;70.90
57900;BME280;60605;53.716;19.940;2023-05-16T12:54:12;100008.39;;;20.02;70.49
57900;BME280;60605;53.716;19.940;2023-05-16T12:59:16;100010.84;;;20.15;70.86
57900;BME280;60605;53.716;19.940;2023-05-16T13:04:21;100021.40;;;20.31;69.39
57900;BME280;60605;53.716;19.940;2023-05-16T13:09:26;100030.05;;;20.33;68.74
57900;BME280;60605;53.716;19.940;2023-05-16T13:14:35;100038.84;;;20.07;67.81
57900;BME280;60605;53.716;19.940;2023-05-16T13:19:39;100038.86;;;19.72;68.85
57900;BME280;60605;53.716;19.940;2023-05-16T13:24:43;100048.73;;;19.89;70.24
57900;BME280;60605;53.716;19.940;2023-05-16T13:29:46;100058.08;;;20.34;69.78
57900;BME280;60605;53.716;19.940;2023-05-16T13:34:50;100065.77;;;20.80;69.10
57900;BME280;60605;53.716;19.940;2023-05-16T13:39:53;100074.27;;;21.28;67.49
57900;BME280;60605;53.716;19.940;2023-05-16T13:44:58;100078.89;;;21.22;64.25
57900;BME280;60605;53.716;19.940;2023-05-16T13:50:01;100076.34;;;20.65;64.61
57900;BME280;60605;53.716;19.940;2023-05-16T13:55:08;100080.92;;;20.08;66.79
57900;BME280;60605;53.716;19.940;2023-05-16T14:00:12;100079.29;;;19.87;68.20
57900;BME280;60605;53.716;19.940;2023-05-16T14:05:19;100075.17;;;19.80;68.02
57900;BME280;60605;53.716;19.940;2023-05-16T14:10:23;100069.55;;;19.60;68.66
57900;BME280;60605;53.716;19.940;2023-05-16T14:15:27;100068.42;;;19.28;69.04
57900;BME280;60605;53.716;19.940;2023-05-16T14:20:30;100066.76;;;18.83;69.62
57900;BME280;60605;53.716;19.940;2023-05-16T14:25:34;100068.80;;;18.41;71.09
57900;BME280;60605;53.716;19.940;2023-05-16T14:30:38;100074.98;;;18.21;72.40
57900;BME280;60605;53.716;19.940;2023-05-16T14:35:41;100087.82;;;18.16;73.13
57900;BME280;60605;53.716;19.940;2023-05-16T14:40:45;100089.31;;;18.11;73.89
57900;BME280;60605;53.716;19.940;2023-05-16T14:45:48;100085.98;;;18.15;74.40
57900;BME280;60605;53.716;19.940;2023-05-16T14:50:51;100085.30;;;18.28;74.81
57900;BME280;60605;53.716;19.940;2023-05-16T14:55:55;100086.05;;;18.54;74.99
57900;BME280;60605;53.716;19.940;2023-05-16T15:00:58;100090.62;;;18.80;74.06
57900;BME280;60605;53.716;19.940;2023-05-16T15:06:02;100095.73;;;19.08;73.68
57900;BME280;60605;53.716;19.940;2023-05-16T15:11:10;100099.98;;;19.32;73.10
57900;BME280;60605;53.716;19.940;2023-05-16T15:16:13;100086.38;;;19.39;71.22
57900;BME280;60605;53.716;19.940;2023-05-16T15:21:18;100084.72;;;19.28;70.30
57900;BME280;60605;53.716;19.940;2023-05-16T15:26:21;100093.45;;;19.34;70.74
57900;BME280;60605;53.716;19.940;2023-05-16T15:31:25;100099.85;;;19.48;70.99
57900;BME280;60605;53.716;19.940;2023-05-16T15:36:29;100096.38;;;19.61;70.72
57900;BME280;60605;53.716;19.940;2023-05-16T15:41:33;100095.72;;;19.59;69.80
57900;BME280;60605;53.716;19.940;2023-05-16T15:46:56;100091.08;;;19.48;69.55
57900;BME280;60605;53.716;19.940;2023-05-16T15:51:59;100090.55;;;19.41;69.63
57900;BME280;60605;53.716;19.940;2023-05-16T15:57:03;100085.52;;;19.35;69.84
57900;BME280;60605;53.716;19.940;2023-05-16T16:02:07;100081.39;;;19.26;70.22
57900;BME280;60605;53.716;19.940;2023-05-16T16:07:10;100088.52;;;19.20;70.32
57900;BME280;60605;53.716;19.940;2023-05-16T16:12:14;100090.42;;;19.13;70.67
57900;BME280;60605;53.716;19.940;2023-05-16T16:17:17;100087.51;;;19.02;70.84
57900;BME280;60605;53.716;19.940;2023-05-16T16:22:21;100093.63;;;18.83;70.95
57900;BME280;60605;53.716;19.940;2023-05-16T16:27:24;100098.32;;;18.70;71.59
57900;BME280;60605;53.716;19.940;2023-05-16T16:32:27;100102.62;;;18.61;72.05
57900;BME280;60605;53.716;19.940;2023-05-16T16:37:31;100102.47;;;18.53;72.20
57900;BME280;60605;53.716;19.940;2023-05-16T16:42:35;100098.00;;;18.45;72.45
57900;BME280;60605;53.716;19.940;2023-05-16T16:47:40;100100.09;;;18.31;72.81
57900;BME280;60605;53.716;19.940;2023-05-16T16:52:44;100110.41;;;18.09;72.96
57900;BME280;60605;53.716;19.940;2023-05-16T16:57:48;100120.33;;;17.85;73.57
57900;BME280;60605;53.716;19.940;2023-05-16T17:02:51;100132.59;;;17.66;74.48
57900;BME280;60605;53.716;19.940;2023-05-16T17:07:55;100132.30;;;17.46;74.65
57900;BME280;60605;53.716;19.940;2023-05-16T17:12:58;100133.47;;;17.28;75.39
57900;BME280;60605;53.716;19.940;2023-05-16T17:18:09;100133.67;;;17.14;76.38
57900;BME280;60605;53.716;19.940;2023-05-16T17:23:12;100139.93;;;17.00;76.95
57900;BME280;60605;53.716;19.940;2023-05-16T17:28:15;100141.54;;;16.82;77.25
57900;BME280;60605;53.716;19.940;2023-05-16T17:33:19;100146.71;;;16.64;77.82
57900;BME280;60605;53.716;19.940;2023-05-16T17:38:22;100158.61;;;16.47;78.40
57900;BME280;60605;53.716;19.940;2023-05-16T17:43:28;100171.64;;;16.31;79.36
57900;BME280;60605;53.716;19.940;2023-05-16T17:48:33;100172.36;;;16.14;80.53
57900;BME280;60605;53.716;19.940;2023-05-16T17:53:37;100183.17;;;16.00;81.47
57900;BME280;60605;53.716;19.940;2023-05-16T17:58:40;100189.39;;;15.82;82.07
57900;BME280;60605;53.716;19.940;2023-05-16T18:03:44;100198.21;;;15.60;82.40
57900;BME280;60605;53.716;19.940;2023-05-16T18:08:48;100201.46;;;15.40;82.98
57900;BME280;60605;53.716;19.940;2023-05-16T18:13:52;100205.58;;;15.22;83.75
57900;BME280;60605;53.716;19.940;2023-05-16T18:18:56;100208.48;;;15.07;84.44
57900;BME280;60605;53.716;19.940;2023-05-16T18:24:00;100214.59;;;14.92;85.20
57900;BME280;60605;53.716;19.940;2023-05-16T18:29:04;100225.77;;;14.77;85.93
57900;BME280;60605;53.716;19.940;2023-05-16T18:34:08;100232.48;;;14.65;86.60
57900;BME280;60605;53.716;19.940;2023-05-16T18:39:12;100239.01;;;14.53;87.34
57900;BME280;60605;53.716;19.940;2023-05-16T18:44:16;100234.91;;;14.41;87.96
57900;BME280;60605;53.716;19.940;2023-05-16T18:49:19;100241.67;;;14.29;88.55
57900;BME280;60605;53.716;19.940;2023-05-16T18:54:23;100251.45;;;14.18;89.14
57900;BME280;60605;53.716;19.940;2023-05-16T18:59:26;100261.52;;;14.08;89.95
57900;BME280;60605;53.716;19.940;2023-05-16T19:04:29;100266.63;;;13.97;90.53
57900;BME280;60605;53.716;19.940;2023-05-16T19:09:33;100269.32;;;13.86;90.63
57900;BME280;60605;53.716;19.940;2023-05-16T19:14:37;100271.80;;;13.78;91.17
57900;BME280;60605;53.716;19.940;2023-05-16T19:19:40;100281.85;;;13.72;91.46
57900;BME280;60605;53.716;19.940;2023-05-16T19:24:44;100286.16;;;13.67;91.62
57900;BME280;60605;53.716;19.940;2023-05-16T19:29:49;100294.70;;;13.62;91.87
57900;BME280;60605;53.716;19.940;2023-05-16T19:34:54;100305.11;;;13.57;92.03
57900;BME280;60605;53.716;19.940;2023-05-16T19:39:58;100297.48;;;13.53;92.45
57900;BME280;60605;53.716;19.940;2023-05-16T19:45:01;100299.51;;;13.48;92.72
57900;BME280;60605;53.716;19.940;2023-05-16T19:50:08;100305.77;;;13.42;93.02
57900;BME280;60605;53.716;19.940;2023-05-16T19:55:12;100309.52;;;13.37;93.38
57900;BME280;60605;53.716;19.940;2023-05-16T20:00:18;100316.52;;;13.32;93.68
57900;BME280;60605;53.716;19.940;2023-05-16T20:05:22;100322.76;;;13.28;93.86
57900;BME280;60605;53.716;19.940;2023-05-16T20:10:27;100321.85;;;13.25;94.14
57900;BME280;60605;53.716;19.940;2023-05-16T20:15:31;100322.48;;;13.20;94.37
57900;BME280;60605;53.716;19.940;2023-05-16T20:20:35;100319.96;;;13.16;94.39
57900;BME280;60605;53.716;19.940;2023-05-16T20:25:38;100320.93;;;13.10;94.44
57900;BME280;60605;53.716;19.940;2023-05-16T20:30:42;100317.77;;;13.05;94.80
57900;BME280;60605;53.716;19.940;2023-05-16T20:35:47;100320.04;;;13.01;95.02
57900;BME280;60605;53.716;19.940;2023-05-16T20:40:54;100321.80;;;12.96;95.11
57900;BME280;60605;53.716;19.940;2023-05-16T20:45:58;100320.14;;;12.91;95.17
57900;BME280;60605;53.716;19.940;2023-05-16T20:51:02;100320.67;;;12.88;95.19
57900;BME280;60605;53.716;19.940;2023-05-16T20:56:06;100323.32;;;12.84;95.22
57900;BME280;60605;53.716;19.940;2023-05-16T21:01:09;100326.08;;;12.80;95.45
57900;BME280;60605;53.716;19.940;2023-05-16T21:06:13;100328.31;;;12.76;95.52
57900;BME280;60605;53.716;19.940;2023-05-16T21:11:17;100331.16;;;12.71;95.11
57900;BME280;60605;53.716;19.940;2023-05-16T21:16:22;100337.38;;;12.63;94.48
57900;BME280;60605;53.716;19.940;2023-05-16T21:21:25;100344.56;;;12.57;94.01
57900;BME280;60605;53.716;19.940;2023-05-16T21:26:28;100348.59;;;12.49;93.78
57900;BME280;60605;53.716;19.940;2023-05-16T21:31:32;100355.95;;;12.42;93.70
57900;BME280;60605;53.716;19.940;2023-05-16T21:36:36;100361.08;;;12.36;93.30
57900;BME280;60605;53.716;19.940;2023-05-16T21:41:41;100366.32;;;12.31;93.32
57900;BME280;60605;53.716;19.940;2023-05-16T21:46:46;100367.54;;;12.26;93.31
57900;BME280;60605;53.716;19.940;2023-05-16T21:51:49;100365.30;;;12.21;93.45
57900;BME280;60605;53.716;19.940;2023-05-16T21:56:53;100367.80;;;12.18;93.56
57900;BME280;60605;53.716;19.940;2023-05-16T22:01:57;100367.31;;;12.16;93.56
57900;BME280;60605;53.716;19.940;2023-05-16T22:07:00;100370.52;;;12.13;93.52
57900;BME280;60605;53.716;19.940;2023-05-16T22:12:04;100368.77;;;12.11;93.49
57900;BME280;60605;53.716;19.940;2023-05-16T22:17:08;100372.52;;;12.09;93.57
57900;BME280;60605;53.716;19.940;2023-05-16T22:22:12;100375.46;;;12.07;93.18
57900;BME280;60605;53.716;19.940;2023-05-16T22:27:15;100379.22;;;12.05;92.76
57900;BME280;60605;53.716;19.940;2023-05-16T22:32:19;100378.50;;;12.02;92.04
57900;BME280;60605;53.716;19.940;2023-05-16T22:37:22;100377.25;;;11.97;91.91
57900;BME280;60605;53.716;19.940;2023-05-16T22:42:26;100377.48;;;11.90;91.85
57900;BME280;60605;53.716;19.940;2023-05-16T22:47:30;100381.91;;;11.81;91.98
57900;BME280;60605;53.716;19.940;2023-05-16T22:52:34;100390.66;;;11.75;91.97
57900;BME280;60605;53.716;19.940;2023-05-16T22:57:42;100398.58;;;11.69;92.45
57900;BME280;60605;53.716;19.940;2023-05-16T23:02:46;100408.06;;;11.60;92.55
57900;BME280;60605;53.716;19.940;2023-05-16T23:07:49;100406.73;;;11.50;93.51
57900;BME280;60605;53.716;19.940;2023-05-16T23:12:53;100405.47;;;11.37;93.33
57900;BME280;60605;53.716;19.940;2023-05-16T23:17:56;100408.48;;;11.21;93.09
57900;BME280;60605;53.716;19.940;2023-05-16T23:23:00;100406.97;;;11.12;94.18
57900;BME280;60605;53.716;19.940;2023-05-16T23:28:03;100411.11;;;11.04;94.58
57900;BME280;60605;53.716;19.940;2023-05-16T23:33:07;100418.29;;;10.99;95.20
57900;BME280;60605;53.716;19.940;2023-05-16T23:38:10;100416.73;;;10.94;96.19
57900;BME280;60605;53.716;19.940;2023-05-16T23:43:13;100418.10;;;10.90;97.07
57900;BME280;60605;53.716;19.940;2023-05-16T23:48:17;100420.65;;;10.84;98.22
57900;BME280;60605;53.716;19.940;2023-05-16T23:53:20;100426.66;;;10.80;98.70
57900;BME280;60605;53.716;19.940;2023-05-16T23:58:28;100428.56;;;10.75;99.55
